Bookmark and Share
Track history (hours):
 

Wan Hai 510

Last reported at 2014-Apr-17 06:28 UTC. Time now 2014-Apr-19 07:06 UTC.
Position N 22°27' E 113°54'.

Length 269 m; draft 11.2 m.

Type: Cargo ship. MMSI: 565741000.

NotesDate/timePositionNaut miles runAvg speedWind from/ knotsBaromVisibWave heightAir tempDewpointWater temp
2014-Apr-17 06:28N 22°27' E 113°54'0 0.0
2014-Apr-17 05:22N 22°27' E 113°54'0 0.0
2014-Apr-17 04:28N 22°27' E 113°54'0 0.0
2014-Apr-17 03:28N 22°27' E 113°54'0 0.0
2014-Apr-17 02:28N 22°27' E 113°54'0 0.0
2014-Apr-17 01:28N 22°27' E 113°54'0 0.0
2014-Apr-17 00:28N 22°27' E 113°54'0 0.0
2014-Apr-16 23:28N 22°27' E 113°54'0 0.0
2014-Apr-16 22:28N 22°27' E 113°54'0 0.0
2014-Apr-16 21:28N 22°27' E 113°54'0 0.0
2014-Apr-16 20:28N 22°27' E 113°54'0 0.0
2014-Apr-16 19:28N 22°27' E 113°54'0 0.0
2014-Apr-16 18:28N 22°27' E 113°54'0 0.0
2014-Apr-16 17:28N 22°27' E 113°54'0 0.0
2014-Apr-16 16:28N 22°27' E 113°54'0 0.1
2014-Apr-16 15:33N 22°27' E 113°54'7 6.8
2014-Apr-16 14:32N 22°21' E 113°57'8 1.6
2014-Apr-16 09:29N 22°19' E 114°05'2 2.2
2014-Apr-16 08:25N 22°19' E 114°07'0 0.0
2014-Apr-16 06:05N 22°19' E 114°07'0 0.0
2014-Apr-16 05:29N 22°19' E 114°07'0 0.0
2014-Apr-16 04:29N 22°19' E 114°07'0 0.0
2014-Apr-16 03:05N 22°19' E 114°07'0 0.0
2014-Apr-16 02:17N 22°19' E 114°07'0 0.0
2014-Apr-16 01:23N 22°19' E 114°07'0 0.0
2014-Apr-16 00:23N 22°19' E 114°07'0 0.0
2014-Apr-15 23:29N 22°19' E 114°07'0 0.0
2014-Apr-15 22:29N 22°19' E 114°07'0 0.0
2014-Apr-15 21:29N 22°19' E 114°07'0 0.0
2014-Apr-15 20:29N 22°19' E 114°07'2 2.3
2014-Apr-15 19:33N 22°18' E 114°06'10 9.6
2014-Apr-15 18:33N 22°10' E 114°12'178 9.3
2014-Apr-14 23:31N 22°18' E 117°24'15015.1
2014-Apr-14 13:34N 22°32' E 120°06'12 5.9
2014-Apr-14 11:34N 22°35' E 120°18'0 0.0
2014-Apr-14 10:29N 22°35' E 120°18'0 0.0
2014-Apr-14 09:29N 22°35' E 120°18'0 0.0
2014-Apr-13 22:29N 22°35' E 120°18'0 0.0
2014-Apr-13 21:29N 22°35' E 120°18'0 0.0
2014-Apr-13 20:29N 22°35' E 120°18'0 0.0
2014-Apr-13 19:29N 22°35' E 120°18'0 0.1
2014-Apr-13 18:17N 22°35' E 120°18'0 0.1
2014-Apr-13 17:29N 22°35' E 120°18'0 0.1
2014-Apr-13 16:23N 22°35' E 120°18'0 0.1
2014-Apr-13 15:29N 22°35' E 120°18'0 0.0
2014-Apr-13 14:29N 22°35' E 120°18'0 0.0
2014-Apr-13 13:29N 22°35' E 120°18'0 0.1
2014-Apr-13 12:29N 22°35' E 120°18'0 0.0
2014-Apr-13 11:29N 22°35' E 120°18'0 0.0
2014-Apr-13 10:29N 22°35' E 120°18'0 0.0
2014-Apr-13 09:29N 22°35' E 120°18'0 0.0
2014-Apr-13 08:17N 22°35' E 120°18'0 0.1
2014-Apr-13 07:17N 22°35' E 120°18'0 0.0
2014-Apr-13 06:17N 22°35' E 120°18'0 0.0
2014-Apr-13 05:26N 22°35' E 120°18'0 0.0
2014-Apr-13 04:32N 22°35' E 120°18'2 1.5
2014-Apr-13 03:29N 22°33' E 120°18'5 5.8
2014-Apr-13 02:33N 22°31' E 120°13'1110.5
2014-Apr-13 01:32N 22°22' E 120°07'  
2014-Apr-09 09:30N 01°14' E 103°56'6 5.5
2014-Apr-09 08:24N 01°16' E 103°51'1 0.1
2014-Apr-09 04:20N 01°16' E 103°50'0 0.0
2014-Apr-09 02:08N 01°16' E 103°50'0 0.0
2014-Apr-08 13:33N 01°16' E 103°50'4 3.9
2014-Apr-08 12:32N 01°13' E 103°53'6 6.0
2014-Apr-08 11:33N 01°10' E 103°49'8 8.1
2014-Apr-08 10:33N 01°05' E 103°43'1110.4
2014-Apr-08 09:31N 01°07' E 103°32'  

Dump ship's entire track history

sailing weather and tide predictions

Wan Hai 510 — 9VJJ8 — position and weather